sensor_id;sensor_type;location;lat;lon;timestamp;P1;durP1;ratioP1;P2;durP2;ratioP2
15958;SDS011;8078;47.822;9.402;2023-11-22T00:00:15;31.20;;;11.17;;
15958;SDS011;8078;47.822;9.402;2023-11-22T00:02:41;26.00;;;10.97;;
15958;SDS011;8078;47.822;9.402;2023-11-22T00:05:06;24.13;;;10.40;;
15958;SDS011;8078;47.822;9.402;2023-11-22T00:07:32;20.80;;;11.00;;
15958;SDS011;8078;47.822;9.402;2023-11-22T00:09:58;23.30;;;10.97;;
15958;SDS011;8078;47.822;9.402;2023-11-22T00:12:24;20.93;;;10.60;;
15958;SDS011;8078;47.822;9.402;2023-11-22T00:14:50;17.07;;;9.77;;
15958;SDS011;8078;47.822;9.402;2023-11-22T00:17:16;23.23;;;10.77;;
15958;SDS011;8078;47.822;9.402;2023-11-22T00:19:45;32.37;;;10.83;;
15958;SDS011;8078;47.822;9.402;2023-11-22T00:22:11;107.43;;;13.23;;
15958;SDS011;8078;47.822;9.402;2023-11-22T00:24:39;256.13;;;21.00;;
15958;SDS011;8078;47.822;9.402;2023-11-22T00:27:05;225.93;;;19.27;;
15958;SDS011;8078;47.822;9.402;2023-11-22T00:29:31;19.67;;;9.87;;
15958;SDS011;8078;47.822;9.402;2023-11-22T00:31:57;19.20;;;10.33;;
15958;SDS011;8078;47.822;9.402;2023-11-22T00:34:23;73.67;;;13.57;;
15958;SDS011;8078;47.822;9.402;2023-11-22T00:36:49;54.93;;;11.43;;
15958;SDS011;8078;47.822;9.402;2023-11-22T00:39:15;127.90;;;14.13;;
15958;SDS011;8078;47.822;9.402;2023-11-22T00:41:41;42.60;;;10.50;;
15958;SDS011;8078;47.822;9.402;2023-11-22T00:44:07;133.90;;;16.00;;
15958;SDS011;8078;47.822;9.402;2023-11-22T00:46:33;48.60;;;13.13;;
15958;SDS011;8078;47.822;9.402;2023-11-22T00:48:58;39.63;;;11.90;;
15958;SDS011;8078;47.822;9.402;2023-11-22T00:51:24;40.87;;;11.73;;
15958;SDS011;8078;47.822;9.402;2023-11-22T00:53:49;24.13;;;10.43;;
15958;SDS011;8078;47.822;9.402;2023-11-22T00:56:16;21.90;;;10.67;;
15958;SDS011;8078;47.822;9.402;2023-11-22T00:58:41;22.63;;;10.27;;
15958;SDS011;8078;47.822;9.402;2023-11-22T01:01:07;20.70;;;10.57;;
15958;SDS011;8078;47.822;9.402;2023-11-22T01:03:33;44.13;;;13.30;;
15958;SDS011;8078;47.822;9.402;2023-11-22T01:06:00;22.37;;;10.10;;
15958;SDS011;8078;47.822;9.402;2023-11-22T01:08:25;20.70;;;11.20;;
15958;SDS011;8078;47.822;9.402;2023-11-22T01:10:51;16.40;;;9.67;;
15958;SDS011;8078;47.822;9.402;2023-11-22T01:13:16;17.83;;;10.10;;
15958;SDS011;8078;47.822;9.402;2023-11-22T01:15:43;17.73;;;10.03;;
15958;SDS011;8078;47.822;9.402;2023-11-22T01:18:09;21.57;;;10.23;;
15958;SDS011;8078;47.822;9.402;2023-11-22T01:20:35;18.97;;;10.07;;
15958;SDS011;8078;47.822;9.402;2023-11-22T01:23:01;20.73;;;10.83;;
15958;SDS011;8078;47.822;9.402;2023-11-22T01:25:26;17.27;;;10.10;;
15958;SDS011;8078;47.822;9.402;2023-11-22T01:27:53;19.80;;;9.37;;
15958;SDS011;8078;47.822;9.402;2023-11-22T01:30:19;14.97;;;9.43;;
15958;SDS011;8078;47.822;9.402;2023-11-22T01:32:44;20.30;;;10.20;;
15958;SDS011;8078;47.822;9.402;2023-11-22T01:35:10;17.20;;;9.90;;
15958;SDS011;8078;47.822;9.402;2023-11-22T01:37:35;22.10;;;9.83;;
15958;SDS011;8078;47.822;9.402;2023-11-22T01:40:01;16.83;;;10.27;;
15958;SDS011;8078;47.822;9.402;2023-11-22T01:42:28;24.07;;;10.03;;
15958;SDS011;8078;47.822;9.402;2023-11-22T01:44:54;17.60;;;9.80;;
15958;SDS011;8078;47.822;9.402;2023-11-22T01:47:20;17.97;;;9.70;;
15958;SDS011;8078;47.822;9.402;2023-11-22T01:49:46;18.03;;;9.67;;
15958;SDS011;8078;47.822;9.402;2023-11-22T01:52:12;19.60;;;9.97;;
15958;SDS011;8078;47.822;9.402;2023-11-22T01:54:38;26.90;;;10.83;;
15958;SDS011;8078;47.822;9.402;2023-11-22T01:57:04;25.33;;;10.73;;
15958;SDS011;8078;47.822;9.402;2023-11-22T01:59:33;20.43;;;10.37;;
15958;SDS011;8078;47.822;9.402;2023-11-22T02:01:59;17.90;;;10.37;;
15958;SDS011;8078;47.822;9.402;2023-11-22T02:04:25;30.77;;;10.43;;
15958;SDS011;8078;47.822;9.402;2023-11-22T02:06:51;25.63;;;9.37;;
15958;SDS011;8078;47.822;9.402;2023-11-22T02:09:17;21.50;;;10.03;;
15958;SDS011;8078;47.822;9.402;2023-11-22T02:11:43;21.50;;;10.00;;
15958;SDS011;8078;47.822;9.402;2023-11-22T02:14:14;19.27;;;10.70;;
15958;SDS011;8078;47.822;9.402;2023-11-22T02:16:40;22.17;;;9.67;;
15958;SDS011;8078;47.822;9.402;2023-11-22T02:19:06;20.37;;;10.07;;
15958;SDS011;8078;47.822;9.402;2023-11-22T02:21:36;31.10;;;10.60;;
15958;SDS011;8078;47.822;9.402;2023-11-22T02:24:02;24.07;;;10.47;;
15958;SDS011;8078;47.822;9.402;2023-11-22T02:26:28;28.57;;;10.70;;
15958;SDS011;8078;47.822;9.402;2023-11-22T02:28:53;22.13;;;9.97;;
15958;SDS011;8078;47.822;9.402;2023-11-22T02:31:19;20.43;;;10.73;;
15958;SDS011;8078;47.822;9.402;2023-11-22T02:33:44;18.70;;;9.73;;
15958;SDS011;8078;47.822;9.402;2023-11-22T02:36:11;36.30;;;11.03;;
15958;SDS011;8078;47.822;9.402;2023-11-22T02:38:37;22.20;;;10.00;;
15958;SDS011;8078;47.822;9.402;2023-11-22T02:41:03;206.93;;;17.90;;
15958;SDS011;8078;47.822;9.402;2023-11-22T02:43:29;175.17;;;15.27;;
15958;SDS011;8078;47.822;9.402;2023-11-22T02:45:55;165.23;;;16.13;;
15958;SDS011;8078;47.822;9.402;2023-11-22T02:48:21;294.73;;;21.37;;
15958;SDS011;8078;47.822;9.402;2023-11-22T02:50:47;417.60;;;27.00;;
15958;SDS011;8078;47.822;9.402;2023-11-22T02:53:14;421.80;;;31.60;;
15958;SDS011;8078;47.822;9.402;2023-11-22T02:55:39;347.77;;;23.93;;
15958;SDS011;8078;47.822;9.402;2023-11-22T02:58:06;323.83;;;22.97;;
15958;SDS011;8078;47.822;9.402;2023-11-22T03:00:31;263.47;;;19.77;;
15958;SDS011;8078;47.822;9.402;2023-11-22T03:02:59;354.07;;;23.87;;
15958;SDS011;8078;47.822;9.402;2023-11-22T03:05:25;402.43;;;25.13;;
15958;SDS011;8078;47.822;9.402;2023-11-22T03:07:50;475.93;;;26.93;;
15958;SDS011;8078;47.822;9.402;2023-11-22T03:10:16;297.00;;;19.87;;
15958;SDS011;8078;47.822;9.402;2023-11-22T03:12:43;379.30;;;22.07;;
15958;SDS011;8078;47.822;9.402;2023-11-22T03:15:09;373.37;;;21.97;;
15958;SDS011;8078;47.822;9.402;2023-11-22T03:17:34;192.60;;;14.80;;
15958;SDS011;8078;47.822;9.402;2023-11-22T03:20:00;122.03;;;13.37;;
15958;SDS011;8078;47.822;9.402;2023-11-22T03:22:26;307.07;;;20.10;;
15958;SDS011;8078;47.822;9.402;2023-11-22T03:24:55;96.33;;;11.50;;
15958;SDS011;8078;47.822;9.402;2023-11-22T03:27:21;139.20;;;12.27;;
15958;SDS011;8078;47.822;9.402;2023-11-22T03:29:48;79.43;;;12.30;;
15958;SDS011;8078;47.822;9.402;2023-11-22T03:32:14;185.43;;;15.53;;
15958;SDS011;8078;47.822;9.402;2023-11-22T03:34:39;241.03;;;17.43;;
15958;SDS011;8078;47.822;9.402;2023-11-22T03:37:05;340.73;;;21.67;;
15958;SDS011;8078;47.822;9.402;2023-11-22T03:39:30;455.50;;;27.60;;
15958;SDS011;8078;47.822;9.402;2023-11-22T03:41:56;373.10;;;23.73;;
15958;SDS011;8078;47.822;9.402;2023-11-22T03:44:22;186.20;;;16.17;;
15958;SDS011;8078;47.822;9.402;2023-11-22T03:46:48;112.97;;;11.23;;
15958;SDS011;8078;47.822;9.402;2023-11-22T03:49:13;390.47;;;24.67;;
15958;SDS011;8078;47.822;9.402;2023-11-22T03:51:39;422.87;;;23.60;;
15958;SDS011;8078;47.822;9.402;2023-11-22T03:54:05;420.60;;;25.03;;
15958;SDS011;8078;47.822;9.402;2023-11-22T03:56:32;381.10;;;23.73;;
15958;SDS011;8078;47.822;9.402;2023-11-22T03:58:58;119.13;;;12.77;;
15958;SDS011;8078;47.822;9.402;2023-11-22T04:01:24;205.80;;;17.43;;
15958;SDS011;8078;47.822;9.402;2023-11-22T04:03:49;315.23;;;20.10;;
15958;SDS011;8078;47.822;9.402;2023-11-22T04:06:16;349.20;;;20.43;;
15958;SDS011;8078;47.822;9.402;2023-11-22T04:08:44;296.50;;;19.70;;
15958;SDS011;8078;47.822;9.402;2023-11-22T04:11:11;461.37;;;28.87;;
15958;SDS011;8078;47.822;9.402;2023-11-22T04:13:40;50.50;;;9.23;;
15958;SDS011;8078;47.822;9.402;2023-11-22T04:16:06;15.63;;;7.73;;
15958;SDS011;8078;47.822;9.402;2023-11-22T04:18:40;28.87;;;8.73;;
15958;SDS011;8078;47.822;9.402;2023-11-22T04:21:09;55.67;;;10.57;;
15958;SDS011;8078;47.822;9.402;2023-11-22T04:23:35;41.27;;;9.07;;
15958;SDS011;8078;47.822;9.402;2023-11-22T04:26:04;36.10;;;8.33;;
15958;SDS011;8078;47.822;9.402;2023-11-22T04:28:32;74.30;;;10.17;;
15958;SDS011;8078;47.822;9.402;2023-11-22T04:30:58;260.63;;;18.23;;
15958;SDS011;8078;47.822;9.402;2023-11-22T04:33:24;11.60;;;5.50;;
15958;SDS011;8078;47.822;9.402;2023-11-22T04:35:50;77.47;;;8.83;;
15958;SDS011;8078;47.822;9.402;2023-11-22T04:38:16;12.53;;;6.10;;
15958;SDS011;8078;47.822;9.402;2023-11-22T04:40:42;9.90;;;5.93;;
15958;SDS011;8078;47.822;9.402;2023-11-22T04:43:08;8.70;;;4.93;;
15958;SDS011;8078;47.822;9.402;2023-11-22T04:45:34;6.37;;;4.50;;
15958;SDS011;8078;47.822;9.402;2023-11-22T04:48:00;8.00;;;4.40;;
15958;SDS011;8078;47.822;9.402;2023-11-22T04:50:25;9.03;;;4.83;;
15958;SDS011;8078;47.822;9.402;2023-11-22T04:52:51;32.17;;;6.40;;
15958;SDS011;8078;47.822;9.402;2023-11-22T04:55:16;255.63;;;15.87;;
15958;SDS011;8078;47.822;9.402;2023-11-22T04:57:45;479.13;;;27.00;;
15958;SDS011;8078;47.822;9.402;2023-11-22T05:00:11;542.80;;;28.37;;
15958;SDS011;8078;47.822;9.402;2023-11-22T05:02:37;421.00;;;27.07;;
15958;SDS011;8078;47.822;9.402;2023-11-22T05:05:03;320.33;;;18.03;;
15958;SDS011;8078;47.822;9.402;2023-11-22T05:07:29;539.33;;;31.50;;
15958;SDS011;8078;47.822;9.402;2023-11-22T05:09:54;504.10;;;25.47;;
15958;SDS011;8078;47.822;9.402;2023-11-22T05:12:20;478.07;;;26.70;;
15958;SDS011;8078;47.822;9.402;2023-11-22T05:14:46;511.17;;;24.13;;
15958;SDS011;8078;47.822;9.402;2023-11-22T05:17:11;515.83;;;25.40;;
15958;SDS011;8078;47.822;9.402;2023-11-22T05:19:37;302.67;;;13.03;;
15958;SDS011;8078;47.822;9.402;2023-11-22T05:22:03;309.27;;;12.17;;
15958;SDS011;8078;47.822;9.402;2023-11-22T05:24:29;389.60;;;16.37;;
15958;SDS011;8078;47.822;9.402;2023-11-22T05:26:55;380.77;;;15.33;;
15958;SDS011;8078;47.822;9.402;2023-11-22T05:29:20;451.67;;;18.00;;
15958;SDS011;8078;47.822;9.402;2023-11-22T05:31:46;426.77;;;21.60;;
15958;SDS011;8078;47.822;9.402;2023-11-22T05:34:12;413.00;;;18.63;;
15958;SDS011;8078;47.822;9.402;2023-11-22T05:36:38;452.30;;;19.77;;
15958;SDS011;8078;47.822;9.402;2023-11-22T05:39:03;410.47;;;15.73;;
15958;SDS011;8078;47.822;9.402;2023-11-22T05:41:29;449.90;;;20.57;;
15958;SDS011;8078;47.822;9.402;2023-11-22T05:43:55;471.77;;;22.53;;
15958;SDS011;8078;47.822;9.402;2023-11-22T05:46:21;408.40;;;17.13;;
15958;SDS011;8078;47.822;9.402;2023-11-22T05:48:50;403.07;;;16.93;;
15958;SDS011;8078;47.822;9.402;2023-11-22T05:51:16;397.33;;;16.07;;
15958;SDS011;8078;47.822;9.402;2023-11-22T05:53:42;388.20;;;18.47;;
15958;SDS011;8078;47.822;9.402;2023-11-22T05:56:07;447.93;;;18.37;;
15958;SDS011;8078;47.822;9.402;2023-11-22T05:58:33;497.63;;;21.23;;
15958;SDS011;8078;47.822;9.402;2023-11-22T06:01:03;595.63;;;27.23;;
15958;SDS011;8078;47.822;9.402;2023-11-22T06:03:32;559.57;;;32.23;;
15958;SDS011;8078;47.822;9.402;2023-11-22T06:05:58;575.03;;;28.57;;
15958;SDS011;8078;47.822;9.402;2023-11-22T06:08:24;585.57;;;30.97;;
15958;SDS011;8078;47.822;9.402;2023-11-22T06:10:49;551.77;;;28.40;;
15958;SDS011;8078;47.822;9.402;2023-11-22T06:13:16;458.27;;;22.53;;
15958;SDS011;8078;47.822;9.402;2023-11-22T06:15:43;617.57;;;31.27;;
15958;SDS011;8078;47.822;9.402;2023-11-22T06:18:08;717.17;;;35.43;;
15958;SDS011;8078;47.822;9.402;2023-11-22T06:20:34;499.43;;;30.47;;
15958;SDS011;8078;47.822;9.402;2023-11-22T06:22:59;617.57;;;32.57;;
15958;SDS011;8078;47.822;9.402;2023-11-22T06:25:25;633.83;;;31.20;;
15958;SDS011;8078;47.822;9.402;2023-11-22T06:27:52;530.03;;;30.07;;
15958;SDS011;8078;47.822;9.402;2023-11-22T06:30:17;470.00;;;22.20;;
15958;SDS011;8078;47.822;9.402;2023-11-22T06:32:43;530.97;;;25.10;;
15958;SDS011;8078;47.822;9.402;2023-11-22T06:35:09;430.37;;;20.10;;
15958;SDS011;8078;47.822;9.402;2023-11-22T06:37:36;229.90;;;14.07;;
15958;SDS011;8078;47.822;9.402;2023-11-22T06:40:02;402.73;;;19.57;;
15958;SDS011;8078;47.822;9.402;2023-11-22T06:42:28;502.53;;;23.20;;
15958;SDS011;8078;47.822;9.402;2023-11-22T06:44:54;410.10;;;20.67;;
15958;SDS011;8078;47.822;9.402;2023-11-22T06:47:23;558.67;;;26.20;;
15958;SDS011;8078;47.822;9.402;2023-11-22T06:49:49;586.30;;;28.20;;
15958;SDS011;8078;47.822;9.402;2023-11-22T06:52:14;466.57;;;26.03;;
15958;SDS011;8078;47.822;9.402;2023-11-22T06:54:40;642.60;;;33.97;;
15958;SDS011;8078;47.822;9.402;2023-11-22T06:57:06;615.43;;;31.20;;
15958;SDS011;8078;47.822;9.402;2023-11-22T06:59:32;638.23;;;30.63;;
15958;SDS011;8078;47.822;9.402;2023-11-22T07:01:58;574.03;;;31.50;;
15958;SDS011;8078;47.822;9.402;2023-11-22T07:04:23;505.93;;;24.50;;
15958;SDS011;8078;47.822;9.402;2023-11-22T07:06:49;619.60;;;30.57;;
15958;SDS011;8078;47.822;9.402;2023-11-22T07:09:15;588.97;;;29.20;;
15958;SDS011;8078;47.822;9.402;2023-11-22T07:11:41;621.83;;;32.80;;
15958;SDS011;8078;47.822;9.402;2023-11-22T07:14:09;598.87;;;31.60;;
15958;SDS011;8078;47.822;9.402;2023-11-22T07:16:34;474.63;;;24.40;;
15958;SDS011;8078;47.822;9.402;2023-11-22T07:19:00;557.83;;;26.63;;
15958;SDS011;8078;47.822;9.402;2023-11-22T07:21:31;569.63;;;26.83;;
15958;SDS011;8078;47.822;9.402;2023-11-22T07:23:58;522.73;;;24.30;;
15958;SDS011;8078;47.822;9.402;2023-11-22T07:26:26;659.87;;;27.50;;
15958;SDS011;8078;47.822;9.402;2023-11-22T07:28:55;532.37;;;25.23;;
15958;SDS011;8078;47.822;9.402;2023-11-22T07:31:21;551.47;;;25.53;;
15958;SDS011;8078;47.822;9.402;2023-11-22T07:33:47;543.83;;;25.77;;
15958;SDS011;8078;47.822;9.402;2023-11-22T07:36:13;559.63;;;26.37;;
15958;SDS011;8078;47.822;9.402;2023-11-22T07:38:40;496.13;;;21.83;;
15958;SDS011;8078;47.822;9.402;2023-11-22T07:41:06;558.73;;;25.37;;
15958;SDS011;8078;47.822;9.402;2023-11-22T07:43:32;427.23;;;19.03;;
15958;SDS011;8078;47.822;9.402;2023-11-22T07:45:58;378.87;;;15.33;;
15958;SDS011;8078;47.822;9.402;2023-11-22T07:48:25;417.53;;;18.93;;
15958;SDS011;8078;47.822;9.402;2023-11-22T07:50:50;222.83;;;11.47;;
15958;SDS011;8078;47.822;9.402;2023-11-22T07:53:18;463.13;;;21.43;;
15958;SDS011;8078;47.822;9.402;2023-11-22T07:55:43;393.53;;;18.70;;
15958;SDS011;8078;47.822;9.402;2023-11-22T07:58:09;378.23;;;18.43;;
15958;SDS011;8078;47.822;9.402;2023-11-22T08:00:35;355.73;;;17.23;;
15958;SDS011;8078;47.822;9.402;2023-11-22T08:03:07;253.07;;;14.77;;
15958;SDS011;8078;47.822;9.402;2023-11-22T08:05:34;394.07;;;20.47;;
15958;SDS011;8078;47.822;9.402;2023-11-22T08:08:04;374.13;;;17.80;;
15958;SDS011;8078;47.822;9.402;2023-11-22T08:10:34;371.43;;;17.50;;
15958;SDS011;8078;47.822;9.402;2023-11-22T08:13:00;463.47;;;21.60;;
15958;SDS011;8078;47.822;9.402;2023-11-22T08:15:25;268.13;;;13.00;;
15958;SDS011;8078;47.822;9.402;2023-11-22T08:17:51;462.67;;;19.90;;
15958;SDS011;8078;47.822;9.402;2023-11-22T08:20:16;362.80;;;17.43;;
15958;SDS011;8078;47.822;9.402;2023-11-22T08:22:43;245.80;;;12.87;;
15958;SDS011;8078;47.822;9.402;2023-11-22T08:25:10;465.90;;;22.43;;
15958;SDS011;8078;47.822;9.402;2023-11-22T08:27:38;500.50;;;25.90;;
15958;SDS011;8078;47.822;9.402;2023-11-22T08:30:05;410.00;;;21.87;;
15958;SDS011;8078;47.822;9.402;2023-11-22T08:32:34;430.60;;;21.87;;
15958;SDS011;8078;47.822;9.402;2023-11-22T08:35:00;350.23;;;17.60;;
15958;SDS011;8078;47.822;9.402;2023-11-22T08:37:26;420.70;;;19.97;;
15958;SDS011;8078;47.822;9.402;2023-11-22T08:39:51;388.77;;;17.77;;
15958;SDS011;8078;47.822;9.402;2023-11-22T08:42:17;601.03;;;35.17;;
15958;SDS011;8078;47.822;9.402;2023-11-22T08:44:43;408.17;;;20.77;;
15958;SDS011;8078;47.822;9.402;2023-11-22T08:47:08;595.77;;;29.33;;
15958;SDS011;8078;47.822;9.402;2023-11-22T08:49:34;239.07;;;14.07;;
15958;SDS011;8078;47.822;9.402;2023-11-22T08:52:00;670.07;;;32.57;;
15958;SDS011;8078;47.822;9.402;2023-11-22T08:54:27;624.40;;;33.63;;
15958;SDS011;8078;47.822;9.402;2023-11-22T08:56:54;615.67;;;32.80;;
15958;SDS011;8078;47.822;9.402;2023-11-22T08:59:23;567.20;;;26.90;;
15958;SDS011;8078;47.822;9.402;2023-11-22T09:01:48;531.70;;;29.23;;
15958;SDS011;8078;47.822;9.402;2023-11-22T09:04:14;551.87;;;31.20;;
15958;SDS011;8078;47.822;9.402;2023-11-22T09:06:40;508.57;;;28.17;;
15958;SDS011;8078;47.822;9.402;2023-11-22T09:09:06;493.93;;;29.43;;
15958;SDS011;8078;47.822;9.402;2023-11-22T09:11:33;418.57;;;24.77;;
15958;SDS011;8078;47.822;9.402;2023-11-22T09:14:00;262.80;;;18.00;;
15958;SDS011;8078;47.822;9.402;2023-11-22T09:16:34;225.03;;;15.63;;
15958;SDS011;8078;47.822;9.402;2023-11-22T09:19:01;625.17;;;34.53;;
15958;SDS011;8078;47.822;9.402;2023-11-22T09:21:28;140.37;;;11.77;;
15958;SDS011;8078;47.822;9.402;2023-11-22T09:23:54;382.10;;;22.47;;
15958;SDS011;8078;47.822;9.402;2023-11-22T09:26:20;370.50;;;21.27;;
15958;SDS011;8078;47.822;9.402;2023-11-22T09:28:45;745.57;;;39.90;;
15958;SDS011;8078;47.822;9.402;2023-11-22T09:31:11;445.40;;;24.83;;
15958;SDS011;8078;47.822;9.402;2023-11-22T09:33:42;568.80;;;31.37;;
15958;SDS011;8078;47.822;9.402;2023-11-22T09:36:08;419.17;;;22.23;;
15958;SDS011;8078;47.822;9.402;2023-11-22T09:38:34;563.00;;;30.30;;
15958;SDS011;8078;47.822;9.402;2023-11-22T09:40:59;525.23;;;28.53;;
15958;SDS011;8078;47.822;9.402;2023-11-22T09:43:27;588.63;;;32.13;;
15958;SDS011;8078;47.822;9.402;2023-11-22T09:45:54;516.67;;;30.17;;
15958;SDS011;8078;47.822;9.402;2023-11-22T09:48:20;293.80;;;20.90;;
15958;SDS011;8078;47.822;9.402;2023-11-22T09:51:04;569.33;;;31.07;;
15958;SDS011;8078;47.822;9.402;2023-11-22T09:53:36;14.73;;;7.60;;
15958;SDS011;8078;47.822;9.402;2023-11-22T09:56:17;20.20;;;7.27;;
15958;SDS011;8078;47.822;9.402;2023-11-22T09:58:44;15.10;;;7.50;;
15958;SDS011;8078;47.822;9.402;2023-11-22T10:01:13;226.30;;;17.67;;
15958;SDS011;8078;47.822;9.402;2023-11-22T10:03:39;66.97;;;9.93;;
15958;SDS011;8078;47.822;9.402;2023-11-22T10:06:05;14.63;;;8.03;;
15958;SDS011;8078;47.822;9.402;2023-11-22T10:08:31;15.80;;;6.93;;
15958;SDS011;8078;47.822;9.402;2023-11-22T10:11:06;11.57;;;6.93;;
15958;SDS011;8078;47.822;9.402;2023-11-22T10:13:32;17.90;;;8.23;;
15958;SDS011;8078;47.822;9.402;2023-11-22T10:16:14;15.67;;;7.77;;
15958;SDS011;8078;47.822;9.402;2023-11-22T10:18:47;13.53;;;7.97;;
15958;SDS011;8078;47.822;9.402;2023-11-22T10:21:26;16.67;;;7.83;;
15958;SDS011;8078;47.822;9.402;2023-11-22T10:23:56;19.53;;;8.27;;
15958;SDS011;8078;47.822;9.402;2023-11-22T10:26:25;13.70;;;7.60;;
15958;SDS011;8078;47.822;9.402;2023-11-22T10:28:53;15.93;;;7.93;;
15958;SDS011;8078;47.822;9.402;2023-11-22T10:31:19;26.10;;;7.83;;
15958;SDS011;8078;47.822;9.402;2023-11-22T10:33:46;15.17;;;7.13;;
15958;SDS011;8078;47.822;9.402;2023-11-22T10:36:13;16.30;;;7.67;;
15958;SDS011;8078;47.822;9.402;2023-11-22T10:38:40;11.37;;;6.27;;
15958;SDS011;8078;47.822;9.402;2023-11-22T10:41:09;10.27;;;6.60;;
15958;SDS011;8078;47.822;9.402;2023-11-22T10:43:35;11.77;;;6.63;;
15958;SDS011;8078;47.822;9.402;2023-11-22T10:46:04;8.43;;;5.27;;
15958;SDS011;8078;47.822;9.402;2023-11-22T10:48:31;12.43;;;6.73;;
15958;SDS011;8078;47.822;9.402;2023-11-22T10:51:01;15.03;;;7.20;;
15958;SDS011;8078;47.822;9.402;2023-11-22T10:56:07;12.47;;;6.10;;
15958;SDS011;8078;47.822;9.402;2023-11-22T10:58:39;10.63;;;6.23;;
15958;SDS011;8078;47.822;9.402;2023-11-22T11:01:21;8.23;;;5.27;;
15958;SDS011;8078;47.822;9.402;2023-11-22T11:04:06;12.17;;;5.87;;
15958;SDS011;8078;47.822;9.402;2023-11-22T11:06:35;9.33;;;5.67;;
15958;SDS011;8078;47.822;9.402;2023-11-22T11:09:02;8.13;;;5.57;;
15958;SDS011;8078;47.822;9.402;2023-11-22T11:11:31;8.47;;;5.33;;
15958;SDS011;8078;47.822;9.402;2023-11-22T11:13:57;7.93;;;4.77;;
15958;SDS011;8078;47.822;9.402;2023-11-22T11:16:24;7.53;;;5.37;;
15958;SDS011;8078;47.822;9.402;2023-11-22T11:18:51;7.97;;;5.07;;
15958;SDS011;8078;47.822;9.402;2023-11-22T11:21:17;8.90;;;5.23;;
15958;SDS011;8078;47.822;9.402;2023-11-22T11:23:44;7.40;;;5.00;;
15958;SDS011;8078;47.822;9.402;2023-11-22T11:26:17;9.70;;;5.83;;
15958;SDS011;8078;47.822;9.402;2023-11-22T11:28:48;6.50;;;4.80;;
15958;SDS011;8078;47.822;9.402;2023-11-22T11:31:15;8.73;;;5.00;;
15958;SDS011;8078;47.822;9.402;2023-11-22T11:36:15;7.37;;;5.07;;
15958;SDS011;8078;47.822;9.402;2023-11-22T11:38:57;6.87;;;4.63;;
15958;SDS011;8078;47.822;9.402;2023-11-22T11:41:26;6.97;;;4.70;;
15958;SDS011;8078;47.822;9.402;2023-11-22T11:44:01;10.43;;;5.17;;
15958;SDS011;8078;47.822;9.402;2023-11-22T11:46:28;7.40;;;5.03;;
15958;SDS011;8078;47.822;9.402;2023-11-22T11:48:54;6.50;;;4.90;;
15958;SDS011;8078;47.822;9.402;2023-11-22T11:51:24;7.57;;;5.17;;
15958;SDS011;8078;47.822;9.402;2023-11-22T11:53:51;7.03;;;5.13;;
15958;SDS011;8078;47.822;9.402;2023-11-22T11:56:17;7.87;;;5.27;;
15958;SDS011;8078;47.822;9.402;2023-11-22T11:58:43;6.77;;;5.00;;
15958;SDS011;8078;47.822;9.402;2023-11-22T12:01:14;7.83;;;5.60;;
15958;SDS011;8078;47.822;9.402;2023-11-22T12:03:46;8.03;;;5.20;;
15958;SDS011;8078;47.822;9.402;2023-11-22T12:06:15;9.87;;;5.60;;
15958;SDS011;8078;47.822;9.402;2023-11-22T12:08:42;6.97;;;5.60;;
15958;SDS011;8078;47.822;9.402;2023-11-22T12:11:08;8.40;;;5.80;;
15958;SDS011;8078;47.822;9.402;2023-11-22T12:13:35;7.97;;;5.43;;
15958;SDS011;8078;47.822;9.402;2023-11-22T12:16:08;11.13;;;5.80;;
15958;SDS011;8078;47.822;9.402;2023-11-22T12:18:42;8.43;;;6.07;;
15958;SDS011;8078;47.822;9.402;2023-11-22T12:21:15;8.67;;;5.63;;
15958;SDS011;8078;47.822;9.402;2023-11-22T12:23:43;9.23;;;5.93;;
15958;SDS011;8078;47.822;9.402;2023-11-22T12:26:12;8.37;;;5.70;;
15958;SDS011;8078;47.822;9.402;2023-11-22T12:28:38;8.90;;;5.60;;
15958;SDS011;8078;47.822;9.402;2023-11-22T12:31:14;8.03;;;5.63;;
15958;SDS011;8078;47.822;9.402;2023-11-22T12:33:41;8.17;;;5.50;;
15958;SDS011;8078;47.822;9.402;2023-11-22T12:36:08;9.50;;;5.53;;
15958;SDS011;8078;47.822;9.402;2023-11-22T12:38:34;8.97;;;6.23;;
15958;SDS011;8078;47.822;9.402;2023-11-22T12:41:00;8.63;;;5.93;;
15958;SDS011;8078;47.822;9.402;2023-11-22T12:43:28;10.57;;;5.63;;
15958;SDS011;8078;47.822;9.402;2023-11-22T12:46:02;9.40;;;6.13;;
15958;SDS011;8078;47.822;9.402;2023-11-22T12:48:31;9.97;;;6.03;;
15958;SDS011;8078;47.822;9.402;2023-11-22T12:50:58;9.20;;;6.30;;
15958;SDS011;8078;47.822;9.402;2023-11-22T12:53:25;10.47;;;6.37;;
15958;SDS011;8078;47.822;9.402;2023-11-22T12:55:53;9.30;;;6.00;;
15958;SDS011;8078;47.822;9.402;2023-11-22T12:58:20;9.27;;;6.27;;
15958;SDS011;8078;47.822;9.402;2023-11-22T13:00:49;9.63;;;6.63;;
15958;SDS011;8078;47.822;9.402;2023-11-22T13:03:16;8.67;;;6.37;;
15958;SDS011;8078;47.822;9.402;2023-11-22T13:05:43;9.97;;;6.60;;
15958;SDS011;8078;47.822;9.402;2023-11-22T13:08:10;9.33;;;6.27;;
15958;SDS011;8078;47.822;9.402;2023-11-22T13:10:46;11.23;;;7.03;;
15958;SDS011;8078;47.822;9.402;2023-11-22T13:13:22;9.93;;;6.67;;
15958;SDS011;8078;47.822;9.402;2023-11-22T13:15:49;9.87;;;6.20;;
15958;SDS011;8078;47.822;9.402;2023-11-22T13:18:15;8.73;;;6.60;;
15958;SDS011;8078;47.822;9.402;2023-11-22T13:20:41;9.27;;;6.60;;
15958;SDS011;8078;47.822;9.402;2023-11-22T13:23:07;11.03;;;7.03;;
15958;SDS011;8078;47.822;9.402;2023-11-22T13:25:33;12.13;;;7.47;;
15958;SDS011;8078;47.822;9.402;2023-11-22T13:27:59;10.20;;;6.83;;
15958;SDS011;8078;47.822;9.402;2023-11-22T13:30:25;9.40;;;6.33;;
15958;SDS011;8078;47.822;9.402;2023-11-22T13:33:00;11.23;;;6.23;;
15958;SDS011;8078;47.822;9.402;2023-11-22T13:35:28;10.47;;;7.03;;
15958;SDS011;8078;47.822;9.402;2023-11-22T13:37:59;13.33;;;7.40;;
15958;SDS011;8078;47.822;9.402;2023-11-22T13:40:26;10.50;;;6.70;;
15958;SDS011;8078;47.822;9.402;2023-11-22T13:42:55;10.13;;;7.00;;
15958;SDS011;8078;47.822;9.402;2023-11-22T13:45:22;10.60;;;6.80;;
15958;SDS011;8078;47.822;9.402;2023-11-22T13:47:48;11.33;;;6.50;;
15958;SDS011;8078;47.822;9.402;2023-11-22T13:50:15;9.77;;;6.30;;
15958;SDS011;8078;47.822;9.402;2023-11-22T13:52:50;13.63;;;6.73;;
15958;SDS011;8078;47.822;9.402;2023-11-22T13:55:16;11.23;;;7.23;;
15958;SDS011;8078;47.822;9.402;2023-11-22T13:57:52;11.57;;;7.27;;
15958;SDS011;8078;47.822;9.402;2023-11-22T14:00:19;16.43;;;8.30;;
15958;SDS011;8078;47.822;9.402;2023-11-22T14:02:51;13.60;;;7.60;;
15958;SDS011;8078;47.822;9.402;2023-11-22T14:05:18;13.40;;;8.27;;
15958;SDS011;8078;47.822;9.402;2023-11-22T14:07:44;15.03;;;8.77;;
15958;SDS011;8078;47.822;9.402;2023-11-22T14:13:28;15.37;;;8.17;;
15958;SDS011;8078;47.822;9.402;2023-11-22T14:15:54;17.07;;;9.83;;
15958;SDS011;8078;47.822;9.402;2023-11-22T14:18:20;15.27;;;9.50;;
15958;SDS011;8078;47.822;9.402;2023-11-22T14:20:45;15.47;;;9.60;;
15958;SDS011;8078;47.822;9.402;2023-11-22T14:23:11;16.40;;;9.53;;
15958;SDS011;8078;47.822;9.402;2023-11-22T14:25:36;18.03;;;9.53;;
15958;SDS011;8078;47.822;9.402;2023-11-22T14:28:02;14.53;;;9.40;;
15958;SDS011;8078;47.822;9.402;2023-11-22T14:30:28;132.93;;;15.70;;
15958;SDS011;8078;47.822;9.402;2023-11-22T14:32:55;19.87;;;9.80;;
15958;SDS011;8078;47.822;9.402;2023-11-22T14:35:23;25.60;;;10.20;;
15958;SDS011;8078;47.822;9.402;2023-11-22T14:37:48;25.10;;;9.77;;
15958;SDS011;8078;47.822;9.402;2023-11-22T14:40:14;35.43;;;11.20;;
15958;SDS011;8078;47.822;9.402;2023-11-22T14:42:45;35.33;;;10.47;;